Time;durP1;ratioP1;P1;durP2;ratioP2;P2;SDS_P1;SDS_P2;PMS_P1;PMS_P2;Temp;Humidity;BMP_temperature;BMP_pressure;BME280_temperature;BME280_humidity;BME280_pressure;Samples;Min_cycle;Max_cycle;Signal;HPM_P1;HPM_P2
2023/08/06 00:07:19;;;;;;;41.00;25.70;;;;;;;17.92;95.66;97466.18;435194;1264;110840;-42
2023/08/06 00:17:26;;;;;;;41.10;25.00;;;;;;;17.98;95.58;97431.68;435248;1254;106444;-41
2023/08/06 00:27:33;;;;;;;45.30;25.30;;;;;;;17.94;95.71;97412.05;434849;1251;462346;-42
2023/08/06 00:47:48;;;;;;;52.00;25.20;;;;;;;17.93;95.81;97287.36;435216;1256;97903;-41
2023/08/06 01:08:08;;;;;;;28.60;18.70;;;;;;;17.95;95.90;97285.35;435009;1257;107867;-41
2023/08/06 01:18:14;;;;;;;28.50;16.20;;;;;;;17.94;96.07;97194.73;435175;1251;97902;-41
2023/08/06 01:28:19;;;;;;;20.70;15.00;;;;;;;17.86;96.96;97078.19;435307;1256;107944;-42
2023/08/06 01:38:27;;;;;;;28.60;17.80;;;;;;;17.70;99.88;97052.50;435301;1251;97880;-42
2023/08/06 01:48:35;;;;;;;33.30;18.10;;;;;;;17.69;99.67;97105.73;436241;1256;110897;-42
2023/08/06 01:58:42;;;;;;;26.30;17.70;;;;;;;17.72;99.37;97001.97;435196;1263;108365;-41
2023/08/06 02:08:49;;;;;;;28.30;17.00;;;;;;;17.71;99.58;97003.13;435424;1253;97989;-42
2023/08/06 02:18:57;;;;;;;22.30;16.50;;;;;;;17.77;99.43;97081.84;435236;1251;109900;-44
2023/08/06 02:29:04;;;;;;;23.10;16.70;;;;;;;17.81;99.37;97075.39;435308;1257;96635;-42
2023/08/06 02:39:11;;;;;;;22.30;16.50;;;;;;;17.88;99.31;97072.02;435288;1253;110738;-42
2023/08/06 02:49:17;;;;;;;24.90;17.20;;;;;;;17.91;99.33;97064.48;435228;1249;110288;-42
2023/08/06 02:59:24;;;;;;;26.30;18.70;;;;;;;17.92;99.50;97038.73;435384;1251;97890;-42
2023/08/06 03:09:31;;;;;;;25.90;17.90;;;;;;;17.99;99.50;97025.91;435346;1254;110919;-41
2023/08/06 03:19:39;;;;;;;30.90;15.80;;;;;;;18.12;99.61;97016.21;435277;1253;97286;-42
2023/08/06 03:29:46;;;;;;;32.90;16.90;;;;;;;18.23;99.13;96994.27;435273;1250;111511;-41
2023/08/06 03:39:52;;;;;;;26.50;15.40;;;;;;;18.32;99.15;96984.58;435202;1254;106544;-40
2023/08/06 03:49:59;;;;;;;20.20;14.50;;;;;;;18.34;98.78;96977.48;435166;1250;97922;-41
2023/08/06 04:00:08;;;;;;;19.00;14.40;;;;;;;18.43;98.87;96978.58;435333;1254;108350;-40
2023/08/06 04:20:20;;;;;;;38.10;20.20;;;;;;;18.67;98.88;96976.68;435412;1254;110690;-41
2023/08/06 04:40:34;;;;;;;35.00;18.90;;;;;;;18.86;98.70;96962.45;435246;1250;97975;-40
2023/08/06 04:50:37;;;;;;;31.90;18.90;;;;;;;18.94;98.41;96954.25;435310;1256;107843;-41
2023/08/06 05:00:44;;;;;;;41.20;22.80;;;;;;;19.07;98.39;96941.79;435261;1254;97870;-40
2023/08/06 05:10:51;;;;;;;25.30;17.80;;;;;;;19.07;98.03;96948.56;435301;1254;109603;-41
2023/08/06 05:20:59;;;;;;;24.80;16.70;;;;;;;19.08;98.22;96945.97;435476;1251;108251;-42
2023/08/06 05:41:09;;;;;;;17.80;13.60;;;;;;;19.27;97.73;96917.98;435813;1250;107927;-40
2023/08/06 05:51:16;;;;;;;15.90;11.80;;;;;;;19.27;97.65;96891.17;435357;1254;98513;-42
2023/08/06 06:11:30;;;;;;;16.50;12.10;;;;;;;19.43;97.45;96850.34;435365;1250;107605;-42
2023/08/06 06:41:49;;;;;;;14.50;11.60;;;;;;;19.88;97.31;96798.11;435461;1248;96648;-40
2023/08/06 06:51:53;;;;;;;19.40;14.80;;;;;;;19.92;96.69;96771.73;436325;1254;110512;-41
2023/08/06 07:02:00;;;;;;;26.80;17.70;;;;;;;19.88;96.60;96762.23;436421;1248;107676;-40
2023/08/06 07:12:08;;;;;;;26.70;18.90;;;;;;;19.89;96.62;96751.61;436387;1248;97886;-41
2023/08/06 07:22:13;;;;;;;;;;;;;;;19.77;96.32;96738.11;436490;1253;109151;-41
2023/08/06 07:42:27;;;;;;;38.70;24.60;;;;;;;19.32;96.74;96721.70;436401;1251;110725;-41
2023/08/06 07:52:34;;;;;;;30.50;18.10;;;;;;;19.11;96.84;96685.46;436316;1250;108577;-41
2023/08/06 08:02:42;;;;;;;16.20;12.90;;;;;;;18.93;97.24;96680.27;436414;1253;96647;-41
2023/08/06 08:12:48;;;;;;;19.50;11.80;;;;;;;18.94;97.72;96707.70;436356;1251;108664;-43
2023/08/06 08:22:55;;;;;;;12.60;9.60;;;;;;;19.08;98.01;96706.95;436307;1248;97922;-41
2023/08/06 08:33:02;;;;;;;2.90;1.60;;;;;;;19.13;97.60;96688.90;436547;1252;110446;-41
2023/08/06 08:43:07;;;;;;;2.60;2.10;;;;;;;18.69;96.76;96725.11;436493;1254;109354;-42
2023/08/06 08:53:16;;;;;;;1.50;0.40;;;;;;;18.38;96.65;96774.56;436484;1253;96671;-42
2023/08/06 09:03:23;;;;;;;0.50;0.30;;;;;;;17.83;96.07;96720.42;436495;1250;106232;-42
2023/08/06 09:13:31;;;;;;;1.50;0.20;;;;;;;17.27;96.28;96682.13;436470;1248;98106;-43
2023/08/06 09:43:48;;;;;;;0.30;0.20;;;;;;;16.99;96.28;96752.28;436274;1248;97866;-41
2023/08/06 09:53:56;;;;;;;0.20;0.10;;;;;;;16.95;95.98;96724.60;436419;1253;110654;-41
2023/08/06 10:14:30;;;;;;;0.30;0.20;;;;;;;16.72;95.85;96740.66;436353;1250;111584;-42
2023/08/06 10:24:46;;;;;;;1.30;0.90;;;;;;;16.47;95.30;96725.23;436383;1254;107666;-42
2023/08/06 10:55:23;;;;;;;0.30;0.20;;;;;;;16.48;95.46;96770.66;436324;1248;97909;-40
2023/08/06 11:05:30;;;;;;;0.20;0.20;;;;;;;16.78;95.48;96756.04;436291;1253;111848;-41
2023/08/06 11:15:36;;;;;;;0.40;0.40;;;;;;;16.86;95.02;96766.29;436350;1250;107362;-42
2023/08/06 11:45:59;;;;;;;0.80;0.30;;;;;;;16.85;94.64;96768.33;436428;1248;96631;-44
2023/08/06 11:56:06;;;;;;;0.60;0.30;;;;;;;16.90;94.52;96758.84;436419;1254;109772;-42
2023/08/06 12:06:13;;;;;;;0.80;0.30;;;;;;;17.15;94.64;96741.23;436573;1252;107880;-40
2023/08/06 12:16:21;;;;;;;0.30;0.30;;;;;;;17.22;94.28;96744.86;436408;1248;96622;-42
2023/08/06 12:26:28;;;;;;;3.30;0.50;;;;;;;17.02;93.91;96765.16;436550;1252;108005;-41
2023/08/06 12:36:35;;;;;;;0.20;0.10;;;;;;;16.69;93.75;96806.62;436007;1248;328214;-42
2023/08/06 13:06:57;;;;;;;0.60;0.20;;;;;;;16.62;93.48;96861.52;436532;1248;96552;-42
2023/08/06 13:27:10;;;;;;;2.70;0.70;;;;;;;16.60;93.64;96879.18;436506;1248;97976;-42
2023/08/06 13:37:17;;;;;;;0.60;0.60;;;;;;;16.71;93.40;96877.88;436357;1248;109681;-41
2023/08/06 13:47:24;;;;;;;0.50;0.30;;;;;;;16.85;93.38;96874.40;436370;1261;107424;-41
2023/08/06 13:57:31;;;;;;;;;;;;;;;16.93;93.17;96865.52;436308;1254;97881;-42
2023/08/06 14:07:38;;;;;;;0.30;0.30;;;;;;;16.93;93.35;96870.23;436435;1254;109460;-41
2023/08/06 14:17:44;;;;;;;0.20;0.20;;;;;;;17.01;93.45;96888.29;436235;1253;97864;-42
2023/08/06 14:27:52;;;;;;;0.20;0.20;;;;;;;17.04;93.21;96905.39;436511;1248;111819;-41
2023/08/06 14:37:59;;;;;;;0.20;0.20;;;;;;;17.28;93.43;96913.95;436300;1251;107280;-41
2023/08/06 14:48:10;;;;;;;1.70;0.40;;;;;;;17.42;93.06;96930.45;435999;1252;96682;-41
2023/08/06 14:58:16;;;;;;;0.10;0.10;;;;;;;17.30;92.55;96938.13;435490;1250;108450;-41
2023/08/06 15:18:30;;;;;;;0.10;0.10;;;;;;;16.75;92.53;96948.84;435968;1251;110595;-41
2023/08/06 15:38:43;;;;;;;0.80;0.60;;;;;;;16.51;92.69;96910.30;435550;1253;98521;-40
2023/08/06 15:58:58;;;;;;;0.20;0.20;;;;;;;16.30;93.15;96993.36;436396;1257;97890;-41
2023/08/06 16:09:05;;;;;;;1.60;0.50;;;;;;;16.16;93.34;97041.38;436389;1254;109993;-41
2023/08/06 16:19:10;;;;;;;0.90;0.50;;;;;;;16.07;93.52;97055.14;436380;1253;108136;-41
2023/08/06 16:39:26;;;;;;;0.60;0.30;;;;;;;15.98;93.34;97057.24;436450;1252;109549;-42
2023/08/06 16:59:34;;;;;;;0.20;0.20;;;;;;;15.83;93.60;97071.66;436410;1254;110433;-40
2023/08/06 17:29:55;;;;;;;0.10;0.10;;;;;;;15.26;94.07;97090.36;436501;1253;107572;-41
2023/08/06 17:40:00;;;;;;;1.20;0.30;;;;;;;15.23;94.36;97096.92;436352;1254;97839;-41
2023/08/06 17:50:10;;;;;;;;;;;;;;;15.13;94.41;97101.77;436429;1253;110710;-39
2023/08/06 18:20:37;;;;;;;0.60;0.40;;;;;;;15.18;94.81;97144.36;436573;1248;107460;-41
2023/08/06 18:30:43;;;;;;;1.50;0.10;;;;;;;15.00;94.45;97144.26;436441;1253;97473;-42
2023/08/06 18:40:56;;;;;;;0.50;0.50;;;;;;;14.85;94.64;97136.70;436341;1248;110687;-42
2023/08/06 18:51:01;;;;;;;1.40;0.60;;;;;;;14.76;94.78;97142.20;436169;1253;108451;-40
2023/08/06 19:21:22;;;;;;;1.20;1.10;;;;;;;14.62;95.27;97169.54;435610;1251;97886;-40
2023/08/06 19:31:30;;;;;;;3.10;1.50;;;;;;;14.65;95.18;97170.56;435700;1253;111620;-41
2023/08/06 19:41:38;;;;;;;3.40;1.30;;;;;;;14.63;95.38;97172.92;435569;1263;107362;-42
2023/08/06 19:51:45;;;;;;;5.40;2.30;;;;;;;14.52;95.41;97188.50;436390;1261;97847;-43
2023/08/06 20:01:53;;;;;;;2.40;1.50;;;;;;;14.57;95.80;97216.08;436375;1254;108413;-41
2023/08/06 20:22:08;;;;;;;2.90;1.30;;;;;;;14.53;95.52;97195.19;436376;1254;110821;-41
2023/08/06 20:32:15;;;;;;;1.30;1.20;;;;;;;14.53;95.71;97194.34;436430;1257;107678;-40
2023/08/06 20:42:22;;;;;;;1.80;1.30;;;;;;;14.48;95.59;97201.34;436332;1248;97869;-41
2023/08/06 20:52:28;;;;;;;2.90;1.40;;;;;;;14.45;95.67;97206.27;436086;1254;108202;-39
2023/08/06 21:22:45;;;;;;;3.60;1.80;;;;;;;14.43;95.49;97211.75;436214;1254;108550;-41
2023/08/06 21:32:53;;;;;;;1.80;1.60;;;;;;;14.43;95.78;97202.72;436338;1248;96621;-40
2023/08/06 21:43:00;;;;;;;2.00;1.50;;;;;;;14.37;95.49;97206.23;436342;1261;108151;-41
2023/08/06 21:53:07;;;;;;;3.80;2.00;;;;;;;14.30;95.57;97203.42;436423;1253;97905;-41
2023/08/06 22:03:14;;;;;;;3.20;1.70;;;;;;;14.22;95.73;97197.54;436408;1254;110103;-40
2023/08/06 22:13:20;;;;;;;2.10;1.90;;;;;;;14.20;95.79;97206.44;436204;1261;107751;-41
2023/08/06 22:23:26;;;;;;;4.40;2.20;;;;;;;14.13;95.58;97217.31;436437;1248;98220;-40
2023/08/06 22:33:33;;;;;;;4.00;2.10;;;;;;;14.07;95.69;97219.52;436387;1254;108109;-41
2023/08/06 22:43:42;;;;;;;3.30;2.40;;;;;;;14.08;95.66;97218.50;436456;1261;97890;-41
2023/08/06 22:53:48;;;;;;;2.10;1.90;;;;;;;14.11;96.17;97231.11;436472;1252;109952;-42
2023/08/06 23:03:55;;;;;;;4.30;2.80;;;;;;;14.26;96.10;97244.59;436416;1254;108162;-41
2023/08/06 23:14:03;;;;;;;7.50;3.20;;;;;;;14.25;95.80;97254.39;436257;1254;98142;-40
2023/08/06 23:24:09;;;;;;;4.20;2.30;;;;;;;14.25;95.75;97274.80;436305;1253;107255;-40
2023/08/06 23:34:16;;;;;;;5.00;2.30;;;;;;;14.26;95.84;97292.60;436355;1262;97890;-41
2023/08/06 23:44:23;;;;;;;3.00;2.10;;;;;;;14.22;95.70;97306.17;436278;1254;110177;-39
2023/08/06 23:54:29;;;;;;;6.40;2.20;;;;;;;14.24;95.94;97310.55;436234;1253;109801;-39
